sensor_id;sensor_type;location;lat;lon;timestamp;temperature;humidity
7654;DHT22;3869;48.406;10.774;2023-02-13T00:00:56;1.60;99.90
7654;DHT22;3869;48.406;10.774;2023-02-13T00:03:25;1.60;99.90
7654;DHT22;3869;48.406;10.774;2023-02-13T00:05:53;1.50;99.90
7654;DHT22;3869;48.406;10.774;2023-02-13T00:08:21;1.50;99.90
7654;DHT22;3869;48.406;10.774;2023-02-13T00:10:50;1.60;99.90
7654;DHT22;3869;48.406;10.774;2023-02-13T00:13:18;1.60;99.90
7654;DHT22;3869;48.406;10.774;2023-02-13T00:15:54;1.70;99.90
7654;DHT22;3869;48.406;10.774;2023-02-13T00:18:24;1.70;99.90
7654;DHT22;3869;48.406;10.774;2023-02-13T00:20:59;1.70;99.90
7654;DHT22;3869;48.406;10.774;2023-02-13T00:23:29;1.70;99.90
7654;DHT22;3869;48.406;10.774;2023-02-13T00:25:59;1.70;99.90
7654;DHT22;3869;48.406;10.774;2023-02-13T00:28:27;1.70;99.90
7654;DHT22;3869;48.406;10.774;2023-02-13T00:31:02;1.70;99.90
7654;DHT22;3869;48.406;10.774;2023-02-13T00:33:30;1.80;99.90
7654;DHT22;3869;48.406;10.774;2023-02-13T00:36:03;1.80;99.90
7654;DHT22;3869;48.406;10.774;2023-02-13T00:38:31;1.80;99.90
7654;DHT22;3869;48.406;10.774;2023-02-13T00:41:01;1.70;99.90
7654;DHT22;3869;48.406;10.774;2023-02-13T00:43:29;1.60;99.90
7654;DHT22;3869;48.406;10.774;2023-02-13T00:45:57;1.50;99.90
7654;DHT22;3869;48.406;10.774;2023-02-13T00:48:25;1.50;99.90
7654;DHT22;3869;48.406;10.774;2023-02-13T00:50:56;1.50;99.90
7654;DHT22;3869;48.406;10.774;2023-02-13T00:53:25;1.50;99.90
7654;DHT22;3869;48.406;10.774;2023-02-13T00:55:53;1.60;99.90
7654;DHT22;3869;48.406;10.774;2023-02-13T00:58:23;1.60;99.90
7654;DHT22;3869;48.406;10.774;2023-02-13T01:00:52;1.60;99.90
7654;DHT22;3869;48.406;10.774;2023-02-13T01:03:21;1.50;99.90
7654;DHT22;3869;48.406;10.774;2023-02-13T01:05:49;1.40;99.90
7654;DHT22;3869;48.406;10.774;2023-02-13T01:08:18;1.50;99.90
7654;DHT22;3869;48.406;10.774;2023-02-13T01:10:47;1.50;99.90
7654;DHT22;3869;48.406;10.774;2023-02-13T01:13:16;1.50;99.90
7654;DHT22;3869;48.406;10.774;2023-02-13T01:15:47;1.40;99.90
7654;DHT22;3869;48.406;10.774;2023-02-13T01:18:17;1.30;99.90
7654;DHT22;3869;48.406;10.774;2023-02-13T01:20:55;1.20;99.90
7654;DHT22;3869;48.406;10.774;2023-02-13T01:23:23;1.30;99.90
7654;DHT22;3869;48.406;10.774;2023-02-13T01:25:51;1.30;99.90
7654;DHT22;3869;48.406;10.774;2023-02-13T01:28:19;1.20;99.90
7654;DHT22;3869;48.406;10.774;2023-02-13T01:30:53;1.10;99.90
7654;DHT22;3869;48.406;10.774;2023-02-13T01:33:22;1.10;99.90
7654;DHT22;3869;48.406;10.774;2023-02-13T01:35:50;1.00;99.90
7654;DHT22;3869;48.406;10.774;2023-02-13T01:38:18;1.00;99.90
7654;DHT22;3869;48.406;10.774;2023-02-13T01:40:46;0.90;99.90
7654;DHT22;3869;48.406;10.774;2023-02-13T01:43:14;0.70;99.90
7654;DHT22;3869;48.406;10.774;2023-02-13T01:45:44;0.70;99.90
7654;DHT22;3869;48.406;10.774;2023-02-13T01:48:17;0.70;99.90
7654;DHT22;3869;48.406;10.774;2023-02-13T01:50:48;0.70;99.90
7654;DHT22;3869;48.406;10.774;2023-02-13T01:53:20;0.70;99.90
7654;DHT22;3869;48.406;10.774;2023-02-13T01:55:55;0.70;99.90
7654;DHT22;3869;48.406;10.774;2023-02-13T01:58:26;0.80;99.90
7654;DHT22;3869;48.406;10.774;2023-02-13T02:00:56;0.90;99.90
7654;DHT22;3869;48.406;10.774;2023-02-13T02:03:30;1.00;99.90
7654;DHT22;3869;48.406;10.774;2023-02-13T02:05:59;1.00;99.90
7654;DHT22;3869;48.406;10.774;2023-02-13T02:08:28;1.10;99.90
7654;DHT22;3869;48.406;10.774;2023-02-13T02:11:03;1.00;99.90
7654;DHT22;3869;48.406;10.774;2023-02-13T02:13:32;0.90;99.90
7654;DHT22;3869;48.406;10.774;2023-02-13T02:16:01;0.90;99.90
7654;DHT22;3869;48.406;10.774;2023-02-13T02:18:30;1.00;99.90
7654;DHT22;3869;48.406;10.774;2023-02-13T02:27:23;0.90;99.90
7654;DHT22;3869;48.406;10.774;2023-02-13T02:30:18;1.00;99.90
7654;DHT22;3869;48.406;10.774;2023-02-13T02:32:59;1.00;99.90
7654;DHT22;3869;48.406;10.774;2023-02-13T02:35:35;1.00;99.90
7654;DHT22;3869;48.406;10.774;2023-02-13T02:38:15;1.00;99.90
7654;DHT22;3869;48.406;10.774;2023-02-13T02:40:55;0.90;99.90
7654;DHT22;3869;48.406;10.774;2023-02-13T02:43:44;1.00;99.90
7654;DHT22;3869;48.406;10.774;2023-02-13T02:46:17;0.90;99.90
7654;DHT22;3869;48.406;10.774;2023-02-13T02:48:53;0.90;99.90
7654;DHT22;3869;48.406;10.774;2023-02-13T02:52:00;0.80;99.90
7654;DHT22;3869;48.406;10.774;2023-02-13T02:54:34;0.80;99.90
7654;DHT22;3869;48.406;10.774;2023-02-13T02:57:23;0.80;99.90
7654;DHT22;3869;48.406;10.774;2023-02-13T03:00:14;0.80;99.90
7654;DHT22;3869;48.406;10.774;2023-02-13T03:03:01;0.70;99.90
7654;DHT22;3869;48.406;10.774;2023-02-13T03:05:49;0.70;99.90
7654;DHT22;3869;48.406;10.774;2023-02-13T03:08:36;0.60;99.90
7654;DHT22;3869;48.406;10.774;2023-02-13T03:11:22;0.60;99.90
7654;DHT22;3869;48.406;10.774;2023-02-13T03:14:09;0.60;99.90
7654;DHT22;3869;48.406;10.774;2023-02-13T03:16:38;0.70;99.90
7654;DHT22;3869;48.406;10.774;2023-02-13T03:19:33;0.90;99.90
7654;DHT22;3869;48.406;10.774;2023-02-13T03:22:31;0.90;99.90
7654;DHT22;3869;48.406;10.774;2023-02-13T03:25:10;1.00;99.90
7654;DHT22;3869;48.406;10.774;2023-02-13T03:27:44;1.10;99.90
7654;DHT22;3869;48.406;10.774;2023-02-13T03:30:39;1.10;99.90
7654;DHT22;3869;48.406;10.774;2023-02-13T03:33:22;1.20;99.90
7654;DHT22;3869;48.406;10.774;2023-02-13T03:36:01;1.20;99.90
7654;DHT22;3869;48.406;10.774;2023-02-13T03:38:56;1.20;99.90
7654;DHT22;3869;48.406;10.774;2023-02-13T03:41:28;1.20;99.90
7654;DHT22;3869;48.406;10.774;2023-02-13T03:44:07;1.30;99.90
7654;DHT22;3869;48.406;10.774;2023-02-13T03:46:39;1.30;99.90
7654;DHT22;3869;48.406;10.774;2023-02-13T03:49:11;1.30;99.90
7654;DHT22;3869;48.406;10.774;2023-02-13T03:52:01;1.30;99.90
7654;DHT22;3869;48.406;10.774;2023-02-13T03:54:37;1.30;99.90
7654;DHT22;3869;48.406;10.774;2023-02-13T03:57:24;1.30;99.90
7654;DHT22;3869;48.406;10.774;2023-02-13T04:00:13;1.30;99.90
7654;DHT22;3869;48.406;10.774;2023-02-13T04:02:49;1.40;99.90
7654;DHT22;3869;48.406;10.774;2023-02-13T04:05:20;1.40;99.90
7654;DHT22;3869;48.406;10.774;2023-02-13T04:07:50;1.50;99.90
7654;DHT22;3869;48.406;10.774;2023-02-13T04:10:19;1.50;99.90
7654;DHT22;3869;48.406;10.774;2023-02-13T04:12:54;1.60;99.90
7654;DHT22;3869;48.406;10.774;2023-02-13T04:15:28;1.60;99.90
7654;DHT22;3869;48.406;10.774;2023-02-13T04:18:04;1.60;99.90
7654;DHT22;3869;48.406;10.774;2023-02-13T04:20:37;1.60;99.90
7654;DHT22;3869;48.406;10.774;2023-02-13T04:23:06;1.60;99.90
7654;DHT22;3869;48.406;10.774;2023-02-13T04:25:38;1.60;99.90
7654;DHT22;3869;48.406;10.774;2023-02-13T04:28:06;1.60;99.90
7654;DHT22;3869;48.406;10.774;2023-02-13T04:30:34;1.60;99.90
7654;DHT22;3869;48.406;10.774;2023-02-13T04:33:03;1.60;99.90
7654;DHT22;3869;48.406;10.774;2023-02-13T04:35:31;1.70;99.90
7654;DHT22;3869;48.406;10.774;2023-02-13T04:37:59;1.70;99.90
7654;DHT22;3869;48.406;10.774;2023-02-13T04:40:27;1.70;99.90
7654;DHT22;3869;48.406;10.774;2023-02-13T04:42:56;1.70;99.90
7654;DHT22;3869;48.406;10.774;2023-02-13T04:45:24;1.60;99.90
7654;DHT22;3869;48.406;10.774;2023-02-13T04:47:53;1.50;99.90
7654;DHT22;3869;48.406;10.774;2023-02-13T04:50:21;1.50;99.90
7654;DHT22;3869;48.406;10.774;2023-02-13T04:52:52;1.40;99.90
7654;DHT22;3869;48.406;10.774;2023-02-13T04:55:20;1.30;99.90
7654;DHT22;3869;48.406;10.774;2023-02-13T04:57:51;1.40;99.90
7654;DHT22;3869;48.406;10.774;2023-02-13T05:00:21;1.40;99.90
7654;DHT22;3869;48.406;10.774;2023-02-13T05:02:49;1.40;99.90
7654;DHT22;3869;48.406;10.774;2023-02-13T05:05:17;1.50;99.90
7654;DHT22;3869;48.406;10.774;2023-02-13T05:07:45;1.50;99.90
7654;DHT22;3869;48.406;10.774;2023-02-13T05:10:13;1.50;99.90
7654;DHT22;3869;48.406;10.774;2023-02-13T05:12:41;1.50;99.90
7654;DHT22;3869;48.406;10.774;2023-02-13T05:15:10;1.50;99.90
7654;DHT22;3869;48.406;10.774;2023-02-13T05:17:40;1.50;99.90
7654;DHT22;3869;48.406;10.774;2023-02-13T05:20:10;1.50;99.90
7654;DHT22;3869;48.406;10.774;2023-02-13T05:22:43;1.50;99.90
7654;DHT22;3869;48.406;10.774;2023-02-13T05:25:28;1.50;99.90
7654;DHT22;3869;48.406;10.774;2023-02-13T05:27:56;1.50;99.90
7654;DHT22;3869;48.406;10.774;2023-02-13T05:30:25;1.60;99.90
7654;DHT22;3869;48.406;10.774;2023-02-13T05:32:53;1.70;99.90
7654;DHT22;3869;48.406;10.774;2023-02-13T05:35:21;1.80;99.90
7654;DHT22;3869;48.406;10.774;2023-02-13T05:37:50;1.80;99.90
7654;DHT22;3869;48.406;10.774;2023-02-13T05:40:18;1.90;99.90
7654;DHT22;3869;48.406;10.774;2023-02-13T05:42:48;1.90;99.90
7654;DHT22;3869;48.406;10.774;2023-02-13T05:45:16;1.90;99.90
7654;DHT22;3869;48.406;10.774;2023-02-13T05:47:44;1.90;99.90
7654;DHT22;3869;48.406;10.774;2023-02-13T05:50:13;1.90;99.90
7654;DHT22;3869;48.406;10.774;2023-02-13T05:52:41;2.00;99.90
7654;DHT22;3869;48.406;10.774;2023-02-13T05:55:09;2.00;99.90
7654;DHT22;3869;48.406;10.774;2023-02-13T05:57:37;2.00;99.90
7654;DHT22;3869;48.406;10.774;2023-02-13T06:00:06;2.00;99.90
7654;DHT22;3869;48.406;10.774;2023-02-13T06:02:34;2.00;99.90
7654;DHT22;3869;48.406;10.774;2023-02-13T06:05:02;2.00;99.90
7654;DHT22;3869;48.406;10.774;2023-02-13T06:07:32;2.10;99.90
7654;DHT22;3869;48.406;10.774;2023-02-13T06:10:00;1.90;99.90
7654;DHT22;3869;48.406;10.774;2023-02-13T06:12:28;1.90;99.90
7654;DHT22;3869;48.406;10.774;2023-02-13T06:14:56;1.90;99.90
7654;DHT22;3869;48.406;10.774;2023-02-13T06:17:24;1.80;99.90
7654;DHT22;3869;48.406;10.774;2023-02-13T06:19:52;1.70;99.90
7654;DHT22;3869;48.406;10.774;2023-02-13T06:22:20;1.60;99.90
7654;DHT22;3869;48.406;10.774;2023-02-13T06:24:49;1.50;99.90
7654;DHT22;3869;48.406;10.774;2023-02-13T06:27:17;1.50;99.90
7654;DHT22;3869;48.406;10.774;2023-02-13T06:29:45;1.40;99.90
7654;DHT22;3869;48.406;10.774;2023-02-13T06:32:13;1.40;99.90
7654;DHT22;3869;48.406;10.774;2023-02-13T06:34:41;1.40;99.90
7654;DHT22;3869;48.406;10.774;2023-02-13T06:37:09;1.40;99.90
7654;DHT22;3869;48.406;10.774;2023-02-13T06:39:37;1.50;99.90
7654;DHT22;3869;48.406;10.774;2023-02-13T06:42:06;1.50;99.90
7654;DHT22;3869;48.406;10.774;2023-02-13T06:44:34;1.60;99.90
7654;DHT22;3869;48.406;10.774;2023-02-13T06:47:02;1.60;99.90
7654;DHT22;3869;48.406;10.774;2023-02-13T06:49:30;1.70;99.90
7654;DHT22;3869;48.406;10.774;2023-02-13T06:51:57;1.70;99.90
7654;DHT22;3869;48.406;10.774;2023-02-13T06:54:25;1.70;99.90
7654;DHT22;3869;48.406;10.774;2023-02-13T06:57:13;1.60;99.90
7654;DHT22;3869;48.406;10.774;2023-02-13T06:59:41;1.60;99.90
7654;DHT22;3869;48.406;10.774;2023-02-13T07:02:10;1.60;99.90
7654;DHT22;3869;48.406;10.774;2023-02-13T07:04:38;1.50;99.90
7654;DHT22;3869;48.406;10.774;2023-02-13T07:07:06;1.50;99.90
7654;DHT22;3869;48.406;10.774;2023-02-13T07:09:34;1.50;99.90
7654;DHT22;3869;48.406;10.774;2023-02-13T07:12:02;1.60;99.90
7654;DHT22;3869;48.406;10.774;2023-02-13T07:14:32;1.70;99.90
7654;DHT22;3869;48.406;10.774;2023-02-13T07:17:00;1.80;99.90
7654;DHT22;3869;48.406;10.774;2023-02-13T07:19:28;1.90;99.90
7654;DHT22;3869;48.406;10.774;2023-02-13T07:21:56;1.90;99.90
7654;DHT22;3869;48.406;10.774;2023-02-13T07:24:24;2.00;99.90
7654;DHT22;3869;48.406;10.774;2023-02-13T07:26:52;2.10;99.90
7654;DHT22;3869;48.406;10.774;2023-02-13T07:29:20;2.10;99.90
7654;DHT22;3869;48.406;10.774;2023-02-13T07:31:49;2.20;99.90
7654;DHT22;3869;48.406;10.774;2023-02-13T07:34:17;2.20;99.90
7654;DHT22;3869;48.406;10.774;2023-02-13T07:36:45;2.30;99.90
7654;DHT22;3869;48.406;10.774;2023-02-13T07:39:13;2.30;99.90
7654;DHT22;3869;48.406;10.774;2023-02-13T07:41:41;2.30;99.90
7654;DHT22;3869;48.406;10.774;2023-02-13T07:44:09;2.30;99.90
7654;DHT22;3869;48.406;10.774;2023-02-13T07:46:37;2.30;99.90
7654;DHT22;3869;48.406;10.774;2023-02-13T07:49:06;2.40;99.90
7654;DHT22;3869;48.406;10.774;2023-02-13T07:51:34;2.20;99.90
7654;DHT22;3869;48.406;10.774;2023-02-13T07:54:02;2.00;99.90
7654;DHT22;3869;48.406;10.774;2023-02-13T07:56:30;1.80;99.90
7654;DHT22;3869;48.406;10.774;2023-02-13T07:58:58;1.70;99.90
7654;DHT22;3869;48.406;10.774;2023-02-13T08:01:26;1.60;99.90
7654;DHT22;3869;48.406;10.774;2023-02-13T08:03:54;1.60;99.90
7654;DHT22;3869;48.406;10.774;2023-02-13T08:06:24;1.60;99.90
7654;DHT22;3869;48.406;10.774;2023-02-13T08:08:52;1.60;99.90
7654;DHT22;3869;48.406;10.774;2023-02-13T08:11:40;1.60;99.90
7654;DHT22;3869;48.406;10.774;2023-02-13T08:14:19;1.60;99.90
7654;DHT22;3869;48.406;10.774;2023-02-13T08:16:47;1.60;99.90
7654;DHT22;3869;48.406;10.774;2023-02-13T08:19:15;1.60;99.90
7654;DHT22;3869;48.406;10.774;2023-02-13T08:21:45;1.60;99.90
7654;DHT22;3869;48.406;10.774;2023-02-13T08:24:13;1.50;99.90
7654;DHT22;3869;48.406;10.774;2023-02-13T08:26:41;1.50;99.90
7654;DHT22;3869;48.406;10.774;2023-02-13T08:29:09;1.50;99.90
7654;DHT22;3869;48.406;10.774;2023-02-13T08:31:37;1.60;99.90
7654;DHT22;3869;48.406;10.774;2023-02-13T08:34:05;1.60;99.90
7654;DHT22;3869;48.406;10.774;2023-02-13T08:36:33;1.70;99.90
7654;DHT22;3869;48.406;10.774;2023-02-13T08:39:02;1.80;99.90
7654;DHT22;3869;48.406;10.774;2023-02-13T08:41:30;1.80;99.90
7654;DHT22;3869;48.406;10.774;2023-02-13T08:43:58;1.90;99.90
7654;DHT22;3869;48.406;10.774;2023-02-13T08:46:26;1.90;99.90
7654;DHT22;3869;48.406;10.774;2023-02-13T08:48:54;1.90;99.90
7654;DHT22;3869;48.406;10.774;2023-02-13T08:51:22;2.00;99.90
7654;DHT22;3869;48.406;10.774;2023-02-13T08:53:50;2.10;99.90
7654;DHT22;3869;48.406;10.774;2023-02-13T08:56:19;2.10;99.90
7654;DHT22;3869;48.406;10.774;2023-02-13T08:58:47;2.00;99.90
7654;DHT22;3869;48.406;10.774;2023-02-13T09:01:17;2.10;99.90
7654;DHT22;3869;48.406;10.774;2023-02-13T09:03:45;2.10;99.90
7654;DHT22;3869;48.406;10.774;2023-02-13T09:06:13;2.00;99.90
7654;DHT22;3869;48.406;10.774;2023-02-13T09:08:41;1.90;99.90
7654;DHT22;3869;48.406;10.774;2023-02-13T09:11:09;1.90;99.90
7654;DHT22;3869;48.406;10.774;2023-02-13T09:13:38;1.90;99.90
7654;DHT22;3869;48.406;10.774;2023-02-13T09:16:07;1.90;99.90
7654;DHT22;3869;48.406;10.774;2023-02-13T09:18:35;2.00;99.90
7654;DHT22;3869;48.406;10.774;2023-02-13T09:21:05;2.10;99.90
7654;DHT22;3869;48.406;10.774;2023-02-13T09:23:36;2.20;99.90
7654;DHT22;3869;48.406;10.774;2023-02-13T09:26:05;2.30;99.90
7654;DHT22;3869;48.406;10.774;2023-02-13T09:28:34;2.30;99.90
7654;DHT22;3869;48.406;10.774;2023-02-13T09:31:06;2.50;99.90
7654;DHT22;3869;48.406;10.774;2023-02-13T09:33:34;2.60;99.90
7654;DHT22;3869;48.406;10.774;2023-02-13T09:36:03;2.50;99.90
7654;DHT22;3869;48.406;10.774;2023-02-13T09:38:32;2.30;99.90
7654;DHT22;3869;48.406;10.774;2023-02-13T09:41:01;2.30;99.90
7654;DHT22;3869;48.406;10.774;2023-02-13T09:43:32;2.30;99.90
7654;DHT22;3869;48.406;10.774;2023-02-13T09:46:06;2.40;99.90
7654;DHT22;3869;48.406;10.774;2023-02-13T09:48:38;2.40;99.90
7654;DHT22;3869;48.406;10.774;2023-02-13T09:51:13;2.40;99.90
7654;DHT22;3869;48.406;10.774;2023-02-13T09:53:45;2.30;99.90
7654;DHT22;3869;48.406;10.774;2023-02-13T09:56:19;2.30;99.90
7654;DHT22;3869;48.406;10.774;2023-02-13T09:58:51;2.30;99.90
7654;DHT22;3869;48.406;10.774;2023-02-13T10:01:29;2.30;99.90
7654;DHT22;3869;48.406;10.774;2023-02-13T10:04:20;2.30;99.90
7654;DHT22;3869;48.406;10.774;2023-02-13T10:06:54;2.40;99.90
7654;DHT22;3869;48.406;10.774;2023-02-13T10:09:29;2.50;99.90
7654;DHT22;3869;48.406;10.774;2023-02-13T10:12:10;2.60;99.90
7654;DHT22;3869;48.406;10.774;2023-02-13T10:14:46;2.70;99.90
7654;DHT22;3869;48.406;10.774;2023-02-13T10:17:22;2.90;99.90
7654;DHT22;3869;48.406;10.774;2023-02-13T10:19:56;3.00;99.90
7654;DHT22;3869;48.406;10.774;2023-02-13T10:22:30;3.10;99.90
7654;DHT22;3869;48.406;10.774;2023-02-13T10:25:03;3.00;99.90
7654;DHT22;3869;48.406;10.774;2023-02-13T10:27:35;3.10;99.90
7654;DHT22;3869;48.406;10.774;2023-02-13T10:30:06;3.10;99.90
7654;DHT22;3869;48.406;10.774;2023-02-13T10:32:46;3.10;99.90
7654;DHT22;3869;48.406;10.774;2023-02-13T10:35:20;3.00;99.90
7654;DHT22;3869;48.406;10.774;2023-02-13T10:37:53;3.10;99.90
7654;DHT22;3869;48.406;10.774;2023-02-13T10:40:26;3.10;99.90
7654;DHT22;3869;48.406;10.774;2023-02-13T10:43:02;3.10;99.90
7654;DHT22;3869;48.406;10.774;2023-02-13T10:45:55;3.10;99.90
7654;DHT22;3869;48.406;10.774;2023-02-13T10:48:38;3.20;99.90
7654;DHT22;3869;48.406;10.774;2023-02-13T10:51:14;3.20;99.90
7654;DHT22;3869;48.406;10.774;2023-02-13T10:53:52;3.30;99.90
7654;DHT22;3869;48.406;10.774;2023-02-13T10:56:27;3.30;99.90
7654;DHT22;3869;48.406;10.774;2023-02-13T10:59:08;3.30;99.90
7654;DHT22;3869;48.406;10.774;2023-02-13T11:01:47;3.00;99.90
7654;DHT22;3869;48.406;10.774;2023-02-13T11:04:19;3.00;99.90
7654;DHT22;3869;48.406;10.774;2023-02-13T11:06:54;2.90;99.90
7654;DHT22;3869;48.406;10.774;2023-02-13T11:09:23;2.70;99.90
7654;DHT22;3869;48.406;10.774;2023-02-13T11:11:51;2.50;99.90
7654;DHT22;3869;48.406;10.774;2023-02-13T11:14:21;2.50;99.90
7654;DHT22;3869;48.406;10.774;2023-02-13T11:16:53;2.70;99.90
7654;DHT22;3869;48.406;10.774;2023-02-13T11:19:29;2.80;99.90
7654;DHT22;3869;48.406;10.774;2023-02-13T11:22:02;2.90;99.90
7654;DHT22;3869;48.406;10.774;2023-02-13T11:24:30;2.80;99.90
7654;DHT22;3869;48.406;10.774;2023-02-13T11:27:01;2.70;99.90
7654;DHT22;3869;48.406;10.774;2023-02-13T11:29:33;2.70;99.90
7654;DHT22;3869;48.406;10.774;2023-02-13T11:32:19;2.90;99.90
7654;DHT22;3869;48.406;10.774;2023-02-13T11:34:49;3.00;99.90
7654;DHT22;3869;48.406;10.774;2023-02-13T11:37:23;3.10;99.90
7654;DHT22;3869;48.406;10.774;2023-02-13T11:39:54;3.20;99.90
7654;DHT22;3869;48.406;10.774;2023-02-13T11:42:28;3.10;99.90
7654;DHT22;3869;48.406;10.774;2023-02-13T11:44:59;3.10;99.90
7654;DHT22;3869;48.406;10.774;2023-02-13T11:47:37;3.20;99.90
7654;DHT22;3869;48.406;10.774;2023-02-13T11:50:20;3.10;99.90
7654;DHT22;3869;48.406;10.774;2023-02-13T11:52:56;2.90;99.90
7654;DHT22;3869;48.406;10.774;2023-02-13T11:55:29;2.70;99.90
7654;DHT22;3869;48.406;10.774;2023-02-13T11:57:59;2.70;99.90
7654;DHT22;3869;48.406;10.774;2023-02-13T12:00:32;2.80;99.90
7654;DHT22;3869;48.406;10.774;2023-02-13T12:03:25;2.90;99.90
7654;DHT22;3869;48.406;10.774;2023-02-13T12:06:04;3.10;99.90
7654;DHT22;3869;48.406;10.774;2023-02-13T12:08:33;3.20;99.90
7654;DHT22;3869;48.406;10.774;2023-02-13T12:11:03;3.40;99.90
7654;DHT22;3869;48.406;10.774;2023-02-13T12:13:37;3.50;99.90
7654;DHT22;3869;48.406;10.774;2023-02-13T12:16:10;3.60;99.90
7654;DHT22;3869;48.406;10.774;2023-02-13T12:18:43;3.60;99.90
7654;DHT22;3869;48.406;10.774;2023-02-13T12:21:25;3.70;99.90
7654;DHT22;3869;48.406;10.774;2023-02-13T12:23:59;3.80;99.90
7654;DHT22;3869;48.406;10.774;2023-02-13T12:26:32;3.80;99.90
7654;DHT22;3869;48.406;10.774;2023-02-13T12:29:16;3.80;99.90
7654;DHT22;3869;48.406;10.774;2023-02-13T12:32:03;3.80;99.90
7654;DHT22;3869;48.406;10.774;2023-02-13T12:35:06;3.80;99.90
7654;DHT22;3869;48.406;10.774;2023-02-13T12:37:51;3.80;99.90
7654;DHT22;3869;48.406;10.774;2023-02-13T12:40:34;3.90;99.90
7654;DHT22;3869;48.406;10.774;2023-02-13T12:46:04;3.90;99.90
7654;DHT22;3869;48.406;10.774;2023-02-13T12:48:39;4.10;99.90
7654;DHT22;3869;48.406;10.774;2023-02-13T12:51:24;4.10;99.90
7654;DHT22;3869;48.406;10.774;2023-02-13T12:54:15;4.00;99.90
7654;DHT22;3869;48.406;10.774;2023-02-13T12:56:56;3.70;99.90
7654;DHT22;3869;48.406;10.774;2023-02-13T12:59:35;3.60;99.90
7654;DHT22;3869;48.406;10.774;2023-02-13T13:02:40;3.60;99.90
7654;DHT22;3869;48.406;10.774;2023-02-13T13:05:24;3.30;99.90
7654;DHT22;3869;48.406;10.774;2023-02-13T13:08:14;3.10;99.90
7654;DHT22;3869;48.406;10.774;2023-02-13T13:10:54;3.00;99.90
7654;DHT22;3869;48.406;10.774;2023-02-13T13:13:38;3.10;99.90
7654;DHT22;3869;48.406;10.774;2023-02-13T13:16:16;3.30;99.90
7654;DHT22;3869;48.406;10.774;2023-02-13T13:18:55;3.40;99.90
7654;DHT22;3869;48.406;10.774;2023-02-13T13:21:31;3.30;99.90
7654;DHT22;3869;48.406;10.774;2023-02-13T13:24:06;3.20;99.90
7654;DHT22;3869;48.406;10.774;2023-02-13T13:26:40;2.90;99.90
7654;DHT22;3869;48.406;10.774;2023-02-13T13:29:13;2.90;99.90
7654;DHT22;3869;48.406;10.774;2023-02-13T13:31:46;2.90;99.90
7654;DHT22;3869;48.406;10.774;2023-02-13T13:34:21;2.90;99.90
7654;DHT22;3869;48.406;10.774;2023-02-13T13:36:53;3.00;99.90
7654;DHT22;3869;48.406;10.774;2023-02-13T13:39:32;3.20;99.90
7654;DHT22;3869;48.406;10.774;2023-02-13T13:42:06;3.10;99.90
7654;DHT22;3869;48.406;10.774;2023-02-13T13:45:02;3.00;99.90
7654;DHT22;3869;48.406;10.774;2023-02-13T13:50:38;2.90;99.90
7654;DHT22;3869;48.406;10.774;2023-02-13T13:53:12;2.80;99.90
7654;DHT22;3869;48.406;10.774;2023-02-13T13:56:04;2.60;99.90
7654;DHT22;3869;48.406;10.774;2023-02-13T13:58:39;2.60;99.90
7654;DHT22;3869;48.406;10.774;2023-02-13T14:01:21;2.50;99.90
7654;DHT22;3869;48.406;10.774;2023-02-13T14:03:51;2.50;99.90
7654;DHT22;3869;48.406;10.774;2023-02-13T14:06:21;2.60;99.90
7654;DHT22;3869;48.406;10.774;2023-02-13T14:09:05;2.60;99.90
7654;DHT22;3869;48.406;10.774;2023-02-13T14:11:40;2.70;99.90
7654;DHT22;3869;48.406;10.774;2023-02-13T14:17:51;2.80;99.90
7654;DHT22;3869;48.406;10.774;2023-02-13T14:20:26;2.90;99.90
7654;DHT22;3869;48.406;10.774;2023-02-13T14:23:13;2.90;99.90
7654;DHT22;3869;48.406;10.774;2023-02-13T14:25:43;3.00;99.90
7654;DHT22;3869;48.406;10.774;2023-02-13T14:28:21;3.10;99.90
7654;DHT22;3869;48.406;10.774;2023-02-13T14:30:51;3.10;99.90
7654;DHT22;3869;48.406;10.774;2023-02-13T14:33:26;3.20;99.90
7654;DHT22;3869;48.406;10.774;2023-02-13T14:36:00;3.20;99.90
7654;DHT22;3869;48.406;10.774;2023-02-13T14:38:29;3.20;99.90
7654;DHT22;3869;48.406;10.774;2023-02-13T14:40:57;3.20;99.90
7654;DHT22;3869;48.406;10.774;2023-02-13T14:43:35;3.30;99.90
7654;DHT22;3869;48.406;10.774;2023-02-13T14:46:29;3.40;99.90
7654;DHT22;3869;48.406;10.774;2023-02-13T14:49:02;3.40;99.90
7654;DHT22;3869;48.406;10.774;2023-02-13T14:51:34;3.40;99.90
7654;DHT22;3869;48.406;10.774;2023-02-13T14:54:11;3.40;99.90
7654;DHT22;3869;48.406;10.774;2023-02-13T14:56:40;3.30;99.90
7654;DHT22;3869;48.406;10.774;2023-02-13T14:59:14;3.30;99.90
7654;DHT22;3869;48.406;10.774;2023-02-13T15:01:47;3.30;99.90
7654;DHT22;3869;48.406;10.774;2023-02-13T15:04:25;3.20;99.90
7654;DHT22;3869;48.406;10.774;2023-02-13T15:06:56;2.90;99.90
7654;DHT22;3869;48.406;10.774;2023-02-13T15:09:30;2.90;99.90
7654;DHT22;3869;48.406;10.774;2023-02-13T15:11:59;2.90;99.90
7654;DHT22;3869;48.406;10.774;2023-02-13T15:14:32;2.90;99.90
7654;DHT22;3869;48.406;10.774;2023-02-13T15:17:04;2.90;99.90
7654;DHT22;3869;48.406;10.774;2023-02-13T15:19:36;2.90;99.90
7654;DHT22;3869;48.406;10.774;2023-02-13T15:22:05;2.70;99.90
7654;DHT22;3869;48.406;10.774;2023-02-13T15:24:41;2.70;99.90
7654;DHT22;3869;48.406;10.774;2023-02-13T15:27:16;2.50;99.90
7654;DHT22;3869;48.406;10.774;2023-02-13T15:29:57;2.40;99.90
7654;DHT22;3869;48.406;10.774;2023-02-13T15:32:28;2.30;99.90
7654;DHT22;3869;48.406;10.774;2023-02-13T15:34:58;2.30;99.90
7654;DHT22;3869;48.406;10.774;2023-02-13T15:37:28;2.30;99.90
7654;DHT22;3869;48.406;10.774;2023-02-13T15:40:12;2.30;99.90
7654;DHT22;3869;48.406;10.774;2023-02-13T15:42:40;2.40;99.90
7654;DHT22;3869;48.406;10.774;2023-02-13T15:45:13;2.40;99.90
7654;DHT22;3869;48.406;10.774;2023-02-13T15:47:42;2.60;99.90
7654;DHT22;3869;48.406;10.774;2023-02-13T15:50:19;2.60;99.90
7654;DHT22;3869;48.406;10.774;2023-02-13T15:52:50;2.60;99.90
7654;DHT22;3869;48.406;10.774;2023-02-13T15:55:20;2.70;99.90
7654;DHT22;3869;48.406;10.774;2023-02-13T15:57:49;2.70;99.90
7654;DHT22;3869;48.406;10.774;2023-02-13T16:00:22;2.80;99.90
7654;DHT22;3869;48.406;10.774;2023-02-13T16:02:51;2.80;99.90
7654;DHT22;3869;48.406;10.774;2023-02-13T16:05:23;2.90;99.90
7654;DHT22;3869;48.406;10.774;2023-02-13T16:08:27;2.90;99.90
7654;DHT22;3869;48.406;10.774;2023-02-13T16:11:18;2.90;99.90
7654;DHT22;3869;48.406;10.774;2023-02-13T16:14:06;2.90;99.90
7654;DHT22;3869;48.406;10.774;2023-02-13T16:16:43;2.90;99.90
7654;DHT22;3869;48.406;10.774;2023-02-13T16:19:22;2.90;99.90
7654;DHT22;3869;48.406;10.774;2023-02-13T16:21:52;2.80;99.90
7654;DHT22;3869;48.406;10.774;2023-02-13T16:24:22;2.80;99.90
7654;DHT22;3869;48.406;10.774;2023-02-13T16:26:51;2.80;99.90
7654;DHT22;3869;48.406;10.774;2023-02-13T16:29:21;2.80;99.90
7654;DHT22;3869;48.406;10.774;2023-02-13T16:31:49;2.80;99.90
7654;DHT22;3869;48.406;10.774;2023-02-13T16:34:24;2.80;99.90
7654;DHT22;3869;48.406;10.774;2023-02-13T16:36:54;2.90;99.90
7654;DHT22;3869;48.406;10.774;2023-02-13T16:39:26;2.80;99.90
7654;DHT22;3869;48.406;10.774;2023-02-13T16:41:56;2.70;99.90
7654;DHT22;3869;48.406;10.774;2023-02-13T16:44:26;2.70;99.90
7654;DHT22;3869;48.406;10.774;2023-02-13T16:46:56;2.60;99.90
7654;DHT22;3869;48.406;10.774;2023-02-13T16:49:29;2.60;99.90
7654;DHT22;3869;48.406;10.774;2023-02-13T16:52:07;2.50;99.90
7654;DHT22;3869;48.406;10.774;2023-02-13T16:54:46;2.50;99.90
7654;DHT22;3869;48.406;10.774;2023-02-13T16:57:19;2.60;99.90